Terminal Aerodrome Forecast
Issued by NWS Jackson, MS

Home | Current Version | Previous Version | Text Only | Print | Product List | Glossary On
Versions: 1 2 3 4 5 6 7 8 9 10 11 12 13 14
000
FTUS44 KJAN 291700
TAFMEI
TAF
KMEI 291728Z 2918/3018 35009KT P6SM BKN045
     FM300100 36003KT P6SM SKC
     FM300900 00000KT 5SM BR SKC
     FM301200 36005KT P6SM SKC=

USA.gov is the U.S. government's official web portal to all federal, state and local government web resources and services.